sensor_id;sensor_type;location;lat;lon;timestamp;P1;durP1;ratioP1;P2;durP2;ratioP2
77449;SDS011;66536;53.150;18.172;2023-09-30T00:02:15;17.20;;;11.70;;
77449;SDS011;66536;53.150;18.172;2023-09-30T00:04:43;16.50;;;11.30;;
77449;SDS011;66536;53.150;18.172;2023-09-30T00:07:09;17.80;;;11.70;;
77449;SDS011;66536;53.150;18.172;2023-09-30T00:09:35;19.20;;;10.90;;
77449;SDS011;66536;53.150;18.172;2023-09-30T00:12:01;16.40;;;11.60;;
77449;SDS011;66536;53.150;18.172;2023-09-30T00:14:28;18.00;;;11.70;;
77449;SDS011;66536;53.150;18.172;2023-09-30T00:16:55;17.40;;;11.30;;
77449;SDS011;66536;53.150;18.172;2023-09-30T00:19:21;19.10;;;11.90;;
77449;SDS011;66536;53.150;18.172;2023-09-30T00:21:48;18.80;;;11.50;;
77449;SDS011;66536;53.150;18.172;2023-09-30T00:24:18;14.40;;;11.40;;
77449;SDS011;66536;53.150;18.172;2023-09-30T00:26:45;15.00;;;11.20;;
77449;SDS011;66536;53.150;18.172;2023-09-30T00:29:12;17.60;;;12.40;;
77449;SDS011;66536;53.150;18.172;2023-09-30T00:31:40;17.60;;;11.50;;
77449;SDS011;66536;53.150;18.172;2023-09-30T00:34:06;16.40;;;10.70;;
77449;SDS011;66536;53.150;18.172;2023-09-30T00:36:32;20.20;;;11.00;;
77449;SDS011;66536;53.150;18.172;2023-09-30T00:38:58;16.70;;;10.20;;
77449;SDS011;66536;53.150;18.172;2023-09-30T00:41:26;17.30;;;11.20;;
77449;SDS011;66536;53.150;18.172;2023-09-30T00:43:52;17.10;;;10.60;;
77449;SDS011;66536;53.150;18.172;2023-09-30T00:46:26;14.50;;;10.90;;
77449;SDS011;66536;53.150;18.172;2023-09-30T00:48:55;15.10;;;10.10;;
77449;SDS011;66536;53.150;18.172;2023-09-30T00:51:24;15.10;;;10.40;;
77449;SDS011;66536;53.150;18.172;2023-09-30T00:53:52;14.90;;;10.50;;
77449;SDS011;66536;53.150;18.172;2023-09-30T00:56:20;15.40;;;10.30;;
77449;SDS011;66536;53.150;18.172;2023-09-30T00:58:49;18.30;;;11.20;;
77449;SDS011;66536;53.150;18.172;2023-09-30T01:01:17;16.70;;;11.50;;
77449;SDS011;66536;53.150;18.172;2023-09-30T01:03:44;19.80;;;11.90;;
77449;SDS011;66536;53.150;18.172;2023-09-30T01:06:12;21.30;;;11.40;;
77449;SDS011;66536;53.150;18.172;2023-09-30T01:08:38;17.20;;;11.10;;
77449;SDS011;66536;53.150;18.172;2023-09-30T01:11:04;19.70;;;11.40;;
77449;SDS011;66536;53.150;18.172;2023-09-30T01:13:33;15.00;;;10.80;;
77449;SDS011;66536;53.150;18.172;2023-09-30T01:16:08;13.50;;;10.40;;
77449;SDS011;66536;53.150;18.172;2023-09-30T01:18:37;19.40;;;10.60;;
77449;SDS011;66536;53.150;18.172;2023-09-30T01:21:04;17.60;;;10.90;;
77449;SDS011;66536;53.150;18.172;2023-09-30T01:23:33;14.90;;;10.80;;
77449;SDS011;66536;53.150;18.172;2023-09-30T01:26:02;16.30;;;10.70;;
77449;SDS011;66536;53.150;18.172;2023-09-30T01:28:29;18.20;;;10.70;;
77449;SDS011;66536;53.150;18.172;2023-09-30T01:30:57;13.50;;;9.90;;
77449;SDS011;66536;53.150;18.172;2023-09-30T01:33:23;16.30;;;10.60;;
77449;SDS011;66536;53.150;18.172;2023-09-30T01:35:51;16.50;;;11.20;;
77449;SDS011;66536;53.150;18.172;2023-09-30T01:38:19;19.20;;;11.40;;
77449;SDS011;66536;53.150;18.172;2023-09-30T01:40:46;18.90;;;11.90;;
77449;SDS011;66536;53.150;18.172;2023-09-30T01:43:13;20.30;;;12.10;;
77449;SDS011;66536;53.150;18.172;2023-09-30T01:45:40;20.10;;;12.00;;
77449;SDS011;66536;53.150;18.172;2023-09-30T01:48:06;17.80;;;12.30;;
77449;SDS011;66536;53.150;18.172;2023-09-30T01:50:33;18.20;;;12.10;;
77449;SDS011;66536;53.150;18.172;2023-09-30T01:53:00;20.70;;;12.40;;
77449;SDS011;66536;53.150;18.172;2023-09-30T01:55:26;18.00;;;12.50;;
77449;SDS011;66536;53.150;18.172;2023-09-30T01:57:52;15.80;;;11.40;;
77449;SDS011;66536;53.150;18.172;2023-09-30T02:00:18;19.10;;;12.70;;
77449;SDS011;66536;53.150;18.172;2023-09-30T02:02:46;15.60;;;12.70;;
77449;SDS011;66536;53.150;18.172;2023-09-30T02:05:12;19.40;;;12.30;;
77449;SDS011;66536;53.150;18.172;2023-09-30T02:07:40;18.20;;;11.90;;
77449;SDS011;66536;53.150;18.172;2023-09-30T02:10:06;21.70;;;11.60;;
77449;SDS011;66536;53.150;18.172;2023-09-30T02:12:33;18.80;;;12.50;;
77449;SDS011;66536;53.150;18.172;2023-09-30T02:14:59;17.40;;;12.60;;
77449;SDS011;66536;53.150;18.172;2023-09-30T02:17:25;17.20;;;12.20;;
77449;SDS011;66536;53.150;18.172;2023-09-30T02:19:52;18.30;;;12.10;;
77449;SDS011;66536;53.150;18.172;2023-09-30T02:22:19;15.50;;;12.00;;
77449;SDS011;66536;53.150;18.172;2023-09-30T02:24:46;19.00;;;12.70;;
77449;SDS011;66536;53.150;18.172;2023-09-30T02:27:14;19.70;;;13.40;;
77449;SDS011;66536;53.150;18.172;2023-09-30T02:29:40;21.00;;;12.90;;
77449;SDS011;66536;53.150;18.172;2023-09-30T02:32:08;17.80;;;12.40;;
77449;SDS011;66536;53.150;18.172;2023-09-30T02:34:35;18.80;;;12.90;;
77449;SDS011;66536;53.150;18.172;2023-09-30T02:37:01;17.80;;;13.40;;
77449;SDS011;66536;53.150;18.172;2023-09-30T02:39:28;17.50;;;12.70;;
77449;SDS011;66536;53.150;18.172;2023-09-30T02:41:54;16.10;;;12.20;;
77449;SDS011;66536;53.150;18.172;2023-09-30T02:44:20;16.80;;;12.30;;
77449;SDS011;66536;53.150;18.172;2023-09-30T02:46:46;20.30;;;12.80;;
77449;SDS011;66536;53.150;18.172;2023-09-30T02:49:13;18.10;;;13.20;;
77449;SDS011;66536;53.150;18.172;2023-09-30T02:51:39;18.20;;;13.00;;
77449;SDS011;66536;53.150;18.172;2023-09-30T02:54:05;20.20;;;13.40;;
77449;SDS011;66536;53.150;18.172;2023-09-30T02:56:33;20.00;;;13.20;;
77449;SDS011;66536;53.150;18.172;2023-09-30T02:58:59;18.40;;;13.10;;
77449;SDS011;66536;53.150;18.172;2023-09-30T03:01:25;19.90;;;12.60;;
77449;SDS011;66536;53.150;18.172;2023-09-30T03:03:53;17.10;;;12.40;;
77449;SDS011;66536;53.150;18.172;2023-09-30T03:06:26;18.50;;;13.00;;
77449;SDS011;66536;53.150;18.172;2023-09-30T03:08:52;15.70;;;13.10;;
77449;SDS011;66536;53.150;18.172;2023-09-30T03:11:20;17.70;;;12.70;;
77449;SDS011;66536;53.150;18.172;2023-09-30T03:14:09;20.80;;;12.80;;
77449;SDS011;66536;53.150;18.172;2023-09-30T03:16:36;18.60;;;12.70;;
77449;SDS011;66536;53.150;18.172;2023-09-30T03:19:04;19.70;;;12.50;;
77449;SDS011;66536;53.150;18.172;2023-09-30T03:21:34;17.10;;;12.30;;
77449;SDS011;66536;53.150;18.172;2023-09-30T03:24:03;14.30;;;11.80;;
77449;SDS011;66536;53.150;18.172;2023-09-30T03:26:30;15.10;;;11.60;;
77449;SDS011;66536;53.150;18.172;2023-09-30T03:28:57;15.40;;;12.00;;
77449;SDS011;66536;53.150;18.172;2023-09-30T03:31:23;16.90;;;11.70;;
77449;SDS011;66536;53.150;18.172;2023-09-30T03:33:51;18.70;;;11.80;;
77449;SDS011;66536;53.150;18.172;2023-09-30T03:36:21;16.80;;;11.90;;
77449;SDS011;66536;53.150;18.172;2023-09-30T03:38:51;14.90;;;11.10;;
77449;SDS011;66536;53.150;18.172;2023-09-30T03:41:22;22.40;;;12.00;;
77449;SDS011;66536;53.150;18.172;2023-09-30T03:43:48;16.30;;;12.10;;
77449;SDS011;66536;53.150;18.172;2023-09-30T03:46:17;17.00;;;11.50;;
77449;SDS011;66536;53.150;18.172;2023-09-30T03:48:43;18.10;;;12.90;;
77449;SDS011;66536;53.150;18.172;2023-09-30T03:51:11;18.40;;;11.80;;
77449;SDS011;66536;53.150;18.172;2023-09-30T03:53:39;20.00;;;12.70;;
77449;SDS011;66536;53.150;18.172;2023-09-30T03:56:07;15.60;;;11.10;;
77449;SDS011;66536;53.150;18.172;2023-09-30T03:58:34;15.20;;;11.70;;
77449;SDS011;66536;53.150;18.172;2023-09-30T04:01:00;19.40;;;11.40;;
77449;SDS011;66536;53.150;18.172;2023-09-30T04:03:26;17.20;;;11.90;;
77449;SDS011;66536;53.150;18.172;2023-09-30T04:05:53;15.80;;;11.30;;
77449;SDS011;66536;53.150;18.172;2023-09-30T04:08:19;16.20;;;10.90;;
77449;SDS011;66536;53.150;18.172;2023-09-30T04:10:45;13.90;;;9.50;;
77449;SDS011;66536;53.150;18.172;2023-09-30T04:13:11;12.90;;;9.20;;
77449;SDS011;66536;53.150;18.172;2023-09-30T04:15:37;14.60;;;10.40;;
77449;SDS011;66536;53.150;18.172;2023-09-30T04:18:04;13.50;;;10.00;;
77449;SDS011;66536;53.150;18.172;2023-09-30T04:20:31;11.10;;;9.00;;
77449;SDS011;66536;53.150;18.172;2023-09-30T04:22:57;11.60;;;7.80;;
77449;SDS011;66536;53.150;18.172;2023-09-30T04:25:23;11.00;;;6.60;;
77449;SDS011;66536;53.150;18.172;2023-09-30T04:27:52;7.60;;;5.70;;
77449;SDS011;66536;53.150;18.172;2023-09-30T04:30:19;8.80;;;5.20;;
77449;SDS011;66536;53.150;18.172;2023-09-30T04:32:47;9.80;;;5.70;;
77449;SDS011;66536;53.150;18.172;2023-09-30T04:35:13;6.90;;;3.20;;
77449;SDS011;66536;53.150;18.172;2023-09-30T04:37:40;7.10;;;3.00;;
77449;SDS011;66536;53.150;18.172;2023-09-30T04:40:07;3.60;;;2.00;;
77449;SDS011;66536;53.150;18.172;2023-09-30T04:42:45;7.30;;;2.20;;
77449;SDS011;66536;53.150;18.172;2023-09-30T04:45:13;4.80;;;1.70;;
77449;SDS011;66536;53.150;18.172;2023-09-30T04:47:45;3.80;;;1.90;;
77449;SDS011;66536;53.150;18.172;2023-09-30T04:50:11;4.90;;;1.30;;
77449;SDS011;66536;53.150;18.172;2023-09-30T04:52:40;4.10;;;1.40;;
77449;SDS011;66536;53.150;18.172;2023-09-30T04:55:08;3.10;;;1.20;;
77449;SDS011;66536;53.150;18.172;2023-09-30T04:57:35;3.40;;;1.20;;
77449;SDS011;66536;53.150;18.172;2023-09-30T05:00:02;5.20;;;1.10;;
77449;SDS011;66536;53.150;18.172;2023-09-30T05:02:37;3.40;;;1.00;;
77449;SDS011;66536;53.150;18.172;2023-09-30T05:05:03;3.00;;;0.90;;
77449;SDS011;66536;53.150;18.172;2023-09-30T05:07:33;5.20;;;1.00;;
77449;SDS011;66536;53.150;18.172;2023-09-30T05:09:59;5.20;;;1.10;;
77449;SDS011;66536;53.150;18.172;2023-09-30T05:12:26;3.20;;;1.00;;
77449;SDS011;66536;53.150;18.172;2023-09-30T05:14:52;3.20;;;1.10;;
77449;SDS011;66536;53.150;18.172;2023-09-30T05:17:18;5.80;;;1.40;;
77449;SDS011;66536;53.150;18.172;2023-09-30T05:19:46;3.30;;;1.00;;
77449;SDS011;66536;53.150;18.172;2023-09-30T05:22:12;2.70;;;1.30;;
77449;SDS011;66536;53.150;18.172;2023-09-30T05:24:45;2.50;;;1.10;;
77449;SDS011;66536;53.150;18.172;2023-09-30T05:27:11;3.30;;;1.40;;
77449;SDS011;66536;53.150;18.172;2023-09-30T05:29:37;5.60;;;1.40;;
77449;SDS011;66536;53.150;18.172;2023-09-30T05:32:04;5.70;;;1.60;;
77449;SDS011;66536;53.150;18.172;2023-09-30T05:34:30;3.10;;;1.30;;
77449;SDS011;66536;53.150;18.172;2023-09-30T05:36:56;4.50;;;1.10;;
77449;SDS011;66536;53.150;18.172;2023-09-30T05:39:27;7.00;;;1.30;;
77449;SDS011;66536;53.150;18.172;2023-09-30T05:41:54;4.40;;;1.30;;
77449;SDS011;66536;53.150;18.172;2023-09-30T05:44:21;6.60;;;1.70;;
77449;SDS011;66536;53.150;18.172;2023-09-30T05:46:50;9.20;;;1.90;;
77449;SDS011;66536;53.150;18.172;2023-09-30T05:49:17;9.70;;;1.70;;
77449;SDS011;66536;53.150;18.172;2023-09-30T05:51:44;6.20;;;1.50;;
77449;SDS011;66536;53.150;18.172;2023-09-30T05:54:12;4.50;;;1.70;;
77449;SDS011;66536;53.150;18.172;2023-09-30T05:56:38;4.90;;;1.50;;
77449;SDS011;66536;53.150;18.172;2023-09-30T05:59:08;5.00;;;1.70;;
77449;SDS011;66536;53.150;18.172;2023-09-30T06:01:35;5.90;;;1.70;;
77449;SDS011;66536;53.150;18.172;2023-09-30T06:04:01;6.00;;;1.70;;
77449;SDS011;66536;53.150;18.172;2023-09-30T06:06:28;7.10;;;2.00;;
77449;SDS011;66536;53.150;18.172;2023-09-30T06:08:56;6.70;;;1.60;;
77449;SDS011;66536;53.150;18.172;2023-09-30T06:11:24;7.70;;;1.90;;
77449;SDS011;66536;53.150;18.172;2023-09-30T06:13:51;5.70;;;1.70;;
77449;SDS011;66536;53.150;18.172;2023-09-30T06:16:18;7.10;;;1.90;;
77449;SDS011;66536;53.150;18.172;2023-09-30T06:18:46;6.20;;;2.00;;
77449;SDS011;66536;53.150;18.172;2023-09-30T06:21:15;4.90;;;1.90;;
77449;SDS011;66536;53.150;18.172;2023-09-30T06:23:43;6.20;;;1.70;;
77449;SDS011;66536;53.150;18.172;2023-09-30T06:26:09;6.20;;;1.80;;
77449;SDS011;66536;53.150;18.172;2023-09-30T06:28:55;9.50;;;1.90;;
77449;SDS011;66536;53.150;18.172;2023-09-30T06:31:22;6.80;;;2.00;;
77449;SDS011;66536;53.150;18.172;2023-09-30T06:33:48;7.50;;;2.10;;
77449;SDS011;66536;53.150;18.172;2023-09-30T06:36:14;6.70;;;2.10;;
77449;SDS011;66536;53.150;18.172;2023-09-30T06:38:42;8.20;;;2.10;;
77449;SDS011;66536;53.150;18.172;2023-09-30T06:41:15;8.30;;;1.50;;
77449;SDS011;66536;53.150;18.172;2023-09-30T06:43:42;8.90;;;2.00;;
77449;SDS011;66536;53.150;18.172;2023-09-30T06:46:09;6.70;;;1.80;;
77449;SDS011;66536;53.150;18.172;2023-09-30T06:48:35;8.00;;;2.00;;
77449;SDS011;66536;53.150;18.172;2023-09-30T06:51:04;7.60;;;2.10;;
77449;SDS011;66536;53.150;18.172;2023-09-30T06:53:30;7.30;;;2.30;;
77449;SDS011;66536;53.150;18.172;2023-09-30T06:55:56;5.50;;;1.90;;
77449;SDS011;66536;53.150;18.172;2023-09-30T06:58:22;9.30;;;2.00;;
77449;SDS011;66536;53.150;18.172;2023-09-30T07:00:49;6.70;;;1.90;;
77449;SDS011;66536;53.150;18.172;2023-09-30T07:03:17;7.50;;;1.60;;
77449;SDS011;66536;53.150;18.172;2023-09-30T07:05:45;11.50;;;2.20;;
77449;SDS011;66536;53.150;18.172;2023-09-30T07:08:16;12.60;;;2.40;;
77449;SDS011;66536;53.150;18.172;2023-09-30T07:10:43;7.10;;;2.20;;
77449;SDS011;66536;53.150;18.172;2023-09-30T07:13:12;13.90;;;2.20;;
77449;SDS011;66536;53.150;18.172;2023-09-30T07:15:38;8.50;;;2.00;;
77449;SDS011;66536;53.150;18.172;2023-09-30T07:18:04;8.50;;;1.80;;
77449;SDS011;66536;53.150;18.172;2023-09-30T07:20:30;33.30;;;3.40;;
77449;SDS011;66536;53.150;18.172;2023-09-30T07:22:59;8.70;;;2.10;;
77449;SDS011;66536;53.150;18.172;2023-09-30T07:25:29;5.50;;;1.70;;
77449;SDS011;66536;53.150;18.172;2023-09-30T07:27:57;6.90;;;1.80;;
77449;SDS011;66536;53.150;18.172;2023-09-30T07:30:24;7.60;;;1.80;;
77449;SDS011;66536;53.150;18.172;2023-09-30T07:32:54;11.10;;;2.10;;
77449;SDS011;66536;53.150;18.172;2023-09-30T07:35:20;9.30;;;2.60;;
77449;SDS011;66536;53.150;18.172;2023-09-30T07:37:46;8.20;;;2.10;;
77449;SDS011;66536;53.150;18.172;2023-09-30T07:40:12;6.60;;;2.10;;
77449;SDS011;66536;53.150;18.172;2023-09-30T07:42:38;10.10;;;2.10;;
77449;SDS011;66536;53.150;18.172;2023-09-30T07:45:05;11.30;;;2.20;;
77449;SDS011;66536;53.150;18.172;2023-09-30T07:47:31;9.00;;;2.00;;
77449;SDS011;66536;53.150;18.172;2023-09-30T07:50:00;10.10;;;2.30;;
77449;SDS011;66536;53.150;18.172;2023-09-30T07:52:34;7.80;;;2.20;;
77449;SDS011;66536;53.150;18.172;2023-09-30T07:55:01;8.40;;;2.10;;
77449;SDS011;66536;53.150;18.172;2023-09-30T07:57:30;10.70;;;2.20;;
77449;SDS011;66536;53.150;18.172;2023-09-30T07:59:57;9.50;;;2.20;;
77449;SDS011;66536;53.150;18.172;2023-09-30T08:02:24;12.80;;;2.50;;
77449;SDS011;66536;53.150;18.172;2023-09-30T08:04:53;13.80;;;2.80;;
77449;SDS011;66536;53.150;18.172;2023-09-30T08:07:21;8.30;;;2.20;;
77449;SDS011;66536;53.150;18.172;2023-09-30T08:09:47;10.50;;;2.60;;
77449;SDS011;66536;53.150;18.172;2023-09-30T08:12:13;9.80;;;2.40;;
77449;SDS011;66536;53.150;18.172;2023-09-30T08:14:39;8.70;;;2.20;;
77449;SDS011;66536;53.150;18.172;2023-09-30T08:17:05;8.80;;;2.20;;
77449;SDS011;66536;53.150;18.172;2023-09-30T08:19:32;11.90;;;2.70;;
77449;SDS011;66536;53.150;18.172;2023-09-30T08:21:58;9.80;;;2.60;;
77449;SDS011;66536;53.150;18.172;2023-09-30T08:24:24;9.40;;;2.80;;
77449;SDS011;66536;53.150;18.172;2023-09-30T08:26:50;9.00;;;2.20;;
77449;SDS011;66536;53.150;18.172;2023-09-30T08:29:17;13.90;;;2.60;;
77449;SDS011;66536;53.150;18.172;2023-09-30T08:31:44;9.30;;;2.70;;
77449;SDS011;66536;53.150;18.172;2023-09-30T08:34:10;12.70;;;2.70;;
77449;SDS011;66536;53.150;18.172;2023-09-30T08:36:36;9.40;;;2.10;;
77449;SDS011;66536;53.150;18.172;2023-09-30T08:39:02;11.80;;;2.40;;
77449;SDS011;66536;53.150;18.172;2023-09-30T08:41:32;10.40;;;2.60;;
77449;SDS011;66536;53.150;18.172;2023-09-30T08:44:00;9.50;;;2.10;;
77449;SDS011;66536;53.150;18.172;2023-09-30T08:46:29;8.20;;;2.20;;
77449;SDS011;66536;53.150;18.172;2023-09-30T08:49:01;17.50;;;2.90;;
77449;SDS011;66536;53.150;18.172;2023-09-30T08:51:29;8.70;;;2.40;;
77449;SDS011;66536;53.150;18.172;2023-09-30T08:53:56;8.00;;;2.20;;
77449;SDS011;66536;53.150;18.172;2023-09-30T08:56:32;7.00;;;2.00;;
77449;SDS011;66536;53.150;18.172;2023-09-30T08:59:01;7.80;;;2.20;;
77449;SDS011;66536;53.150;18.172;2023-09-30T09:01:29;9.40;;;2.70;;
77449;SDS011;66536;53.150;18.172;2023-09-30T09:03:58;11.90;;;2.40;;
77449;SDS011;66536;53.150;18.172;2023-09-30T09:06:25;12.40;;;2.50;;
77449;SDS011;66536;53.150;18.172;2023-09-30T09:08:51;7.90;;;2.30;;
77449;SDS011;66536;53.150;18.172;2023-09-30T09:11:18;8.70;;;2.40;;
77449;SDS011;66536;53.150;18.172;2023-09-30T09:13:53;13.00;;;2.70;;
77449;SDS011;66536;53.150;18.172;2023-09-30T09:16:25;10.50;;;3.10;;
77449;SDS011;66536;53.150;18.172;2023-09-30T09:18:51;14.00;;;2.90;;
77449;SDS011;66536;53.150;18.172;2023-09-30T09:21:19;10.90;;;2.50;;
77449;SDS011;66536;53.150;18.172;2023-09-30T09:23:49;8.60;;;2.20;;
77449;SDS011;66536;53.150;18.172;2023-09-30T09:26:25;11.30;;;3.00;;
77449;SDS011;66536;53.150;18.172;2023-09-30T09:29:07;9.80;;;2.40;;
77449;SDS011;66536;53.150;18.172;2023-09-30T09:31:35;10.00;;;2.60;;
77449;SDS011;66536;53.150;18.172;2023-09-30T09:34:02;9.00;;;2.70;;
77449;SDS011;66536;53.150;18.172;2023-09-30T09:36:39;7.20;;;2.30;;
77449;SDS011;66536;53.150;18.172;2023-09-30T09:39:07;12.00;;;2.80;;
77449;SDS011;66536;53.150;18.172;2023-09-30T09:41:36;14.50;;;2.70;;
77449;SDS011;66536;53.150;18.172;2023-09-30T09:44:19;13.10;;;2.60;;
77449;SDS011;66536;53.150;18.172;2023-09-30T09:46:47;10.10;;;2.90;;
77449;SDS011;66536;53.150;18.172;2023-09-30T09:49:16;10.50;;;2.50;;
77449;SDS011;66536;53.150;18.172;2023-09-30T09:51:43;7.70;;;2.50;;
77449;SDS011;66536;53.150;18.172;2023-09-30T09:54:12;12.10;;;3.20;;
77449;SDS011;66536;53.150;18.172;2023-09-30T09:56:39;11.10;;;3.00;;
77449;SDS011;66536;53.150;18.172;2023-09-30T09:59:06;9.00;;;2.60;;
77449;SDS011;66536;53.150;18.172;2023-09-30T10:01:34;10.10;;;2.70;;
77449;SDS011;66536;53.150;18.172;2023-09-30T10:04:01;10.30;;;3.00;;
77449;SDS011;66536;53.150;18.172;2023-09-30T10:06:27;8.40;;;2.80;;
77449;SDS011;66536;53.150;18.172;2023-09-30T10:08:55;10.70;;;2.50;;
77449;SDS011;66536;53.150;18.172;2023-09-30T10:11:23;10.50;;;3.10;;
77449;SDS011;66536;53.150;18.172;2023-09-30T10:13:52;16.40;;;2.90;;
77449;SDS011;66536;53.150;18.172;2023-09-30T10:19:33;8.30;;;2.90;;
77449;SDS011;66536;53.150;18.172;2023-09-30T10:24:49;10.00;;;3.40;;
77449;SDS011;66536;53.150;18.172;2023-09-30T10:27:30;9.60;;;2.90;;
77449;SDS011;66536;53.150;18.172;2023-09-30T10:29:58;10.10;;;3.10;;
77449;SDS011;66536;53.150;18.172;2023-09-30T10:41:07;7.60;;;2.80;;
77449;SDS011;66536;53.150;18.172;2023-09-30T10:43:35;8.20;;;2.70;;
77449;SDS011;66536;53.150;18.172;2023-09-30T10:46:04;8.20;;;2.60;;
77449;SDS011;66536;53.150;18.172;2023-09-30T10:48:53;9.40;;;2.70;;
77449;SDS011;66536;53.150;18.172;2023-09-30T10:51:19;9.40;;;2.20;;
77449;SDS011;66536;53.150;18.172;2023-09-30T10:53:53;8.00;;;2.20;;
77449;SDS011;66536;53.150;18.172;2023-09-30T10:56:32;9.80;;;2.50;;
77449;SDS011;66536;53.150;18.172;2023-09-30T10:58:59;11.40;;;2.70;;
77449;SDS011;66536;53.150;18.172;2023-09-30T11:01:32;10.20;;;2.80;;
77449;SDS011;66536;53.150;18.172;2023-09-30T11:04:01;9.10;;;2.30;;
77449;SDS011;66536;53.150;18.172;2023-09-30T11:06:30;8.30;;;2.40;;
77449;SDS011;66536;53.150;18.172;2023-09-30T11:08:59;6.60;;;2.10;;
77449;SDS011;66536;53.150;18.172;2023-09-30T11:11:34;8.90;;;2.40;;
77449;SDS011;66536;53.150;18.172;2023-09-30T11:14:21;9.10;;;2.90;;
77449;SDS011;66536;53.150;18.172;2023-09-30T11:16:50;9.60;;;3.20;;
77449;SDS011;66536;53.150;18.172;2023-09-30T11:19:17;7.50;;;2.10;;
77449;SDS011;66536;53.150;18.172;2023-09-30T11:21:47;6.60;;;2.20;;
77449;SDS011;66536;53.150;18.172;2023-09-30T11:24:15;10.40;;;2.40;;
77449;SDS011;66536;53.150;18.172;2023-09-30T11:26:45;11.70;;;2.30;;
77449;SDS011;66536;53.150;18.172;2023-09-30T11:29:13;10.30;;;2.40;;
77449;SDS011;66536;53.150;18.172;2023-09-30T11:31:43;9.90;;;2.20;;
77449;SDS011;66536;53.150;18.172;2023-09-30T11:34:10;9.30;;;2.70;;
77449;SDS011;66536;53.150;18.172;2023-09-30T11:36:38;7.30;;;2.10;;
77449;SDS011;66536;53.150;18.172;2023-09-30T11:39:08;9.00;;;2.60;;
77449;SDS011;66536;53.150;18.172;2023-09-30T11:41:35;10.20;;;2.90;;
77449;SDS011;66536;53.150;18.172;2023-09-30T11:44:05;8.70;;;2.60;;
77449;SDS011;66536;53.150;18.172;2023-09-30T11:49:23;6.90;;;2.40;;
77449;SDS011;66536;53.150;18.172;2023-09-30T11:51:50;9.40;;;2.30;;
77449;SDS011;66536;53.150;18.172;2023-09-30T11:54:16;8.60;;;2.30;;
77449;SDS011;66536;53.150;18.172;2023-09-30T11:56:42;5.80;;;1.60;;
77449;SDS011;66536;53.150;18.172;2023-09-30T11:59:09;6.80;;;1.90;;
77449;SDS011;66536;53.150;18.172;2023-09-30T12:01:37;7.90;;;2.10;;
77449;SDS011;66536;53.150;18.172;2023-09-30T12:04:04;10.60;;;2.00;;
77449;SDS011;66536;53.150;18.172;2023-09-30T12:06:30;13.00;;;2.40;;
77449;SDS011;66536;53.150;18.172;2023-09-30T12:08:56;7.90;;;2.10;;
77449;SDS011;66536;53.150;18.172;2023-09-30T12:11:23;7.50;;;1.90;;
77449;SDS011;66536;53.150;18.172;2023-09-30T12:13:49;6.10;;;2.20;;
77449;SDS011;66536;53.150;18.172;2023-09-30T12:16:16;8.10;;;2.00;;
77449;SDS011;66536;53.150;18.172;2023-09-30T12:18:43;8.00;;;2.30;;
77449;SDS011;66536;53.150;18.172;2023-09-30T12:21:09;7.70;;;2.40;;
77449;SDS011;66536;53.150;18.172;2023-09-30T12:23:39;10.40;;;2.60;;
77449;SDS011;66536;53.150;18.172;2023-09-30T12:26:07;7.40;;;2.60;;
77449;SDS011;66536;53.150;18.172;2023-09-30T12:28:34;5.60;;;1.90;;
77449;SDS011;66536;53.150;18.172;2023-09-30T12:31:01;6.40;;;2.20;;
77449;SDS011;66536;53.150;18.172;2023-09-30T12:33:48;7.40;;;2.00;;
77449;SDS011;66536;53.150;18.172;2023-09-30T12:36:17;21.90;;;2.80;;
77449;SDS011;66536;53.150;18.172;2023-09-30T12:38:46;10.30;;;2.20;;
77449;SDS011;66536;53.150;18.172;2023-09-30T12:41:15;9.20;;;1.80;;
77449;SDS011;66536;53.150;18.172;2023-09-30T12:44:00;8.30;;;2.10;;
77449;SDS011;66536;53.150;18.172;2023-09-30T12:46:28;10.70;;;2.20;;
77449;SDS011;66536;53.150;18.172;2023-09-30T12:48:54;7.90;;;2.10;;
77449;SDS011;66536;53.150;18.172;2023-09-30T12:51:20;6.40;;;1.90;;
77449;SDS011;66536;53.150;18.172;2023-09-30T12:53:48;7.80;;;2.30;;
77449;SDS011;66536;53.150;18.172;2023-09-30T12:56:18;8.60;;;2.10;;
77449;SDS011;66536;53.150;18.172;2023-09-30T12:58:46;11.00;;;2.10;;
77449;SDS011;66536;53.150;18.172;2023-09-30T13:01:13;12.10;;;2.40;;
77449;SDS011;66536;53.150;18.172;2023-09-30T13:03:41;6.10;;;1.70;;
77449;SDS011;66536;53.150;18.172;2023-09-30T13:06:07;7.00;;;2.10;;
77449;SDS011;66536;53.150;18.172;2023-09-30T13:08:36;6.60;;;2.40;;
77449;SDS011;66536;53.150;18.172;2023-09-30T13:11:03;6.40;;;2.00;;
77449;SDS011;66536;53.150;18.172;2023-09-30T13:13:29;8.00;;;2.20;;
77449;SDS011;66536;53.150;18.172;2023-09-30T13:16:02;8.20;;;2.20;;
77449;SDS011;66536;53.150;18.172;2023-09-30T13:18:36;7.70;;;2.20;;
77449;SDS011;66536;53.150;18.172;2023-09-30T13:21:05;10.70;;;2.20;;
77449;SDS011;66536;53.150;18.172;2023-09-30T13:23:31;8.50;;;3.10;;
77449;SDS011;66536;53.150;18.172;2023-09-30T13:25:58;8.30;;;1.80;;
77449;SDS011;66536;53.150;18.172;2023-09-30T13:28:24;6.30;;;2.10;;
77449;SDS011;66536;53.150;18.172;2023-09-30T13:30:52;7.60;;;2.10;;
77449;SDS011;66536;53.150;18.172;2023-09-30T13:33:18;9.30;;;2.10;;
77449;SDS011;66536;53.150;18.172;2023-09-30T13:35:46;7.00;;;2.20;;
77449;SDS011;66536;53.150;18.172;2023-09-30T13:38:15;8.40;;;2.10;;
77449;SDS011;66536;53.150;18.172;2023-09-30T13:40:44;7.90;;;2.00;;
77449;SDS011;66536;53.150;18.172;2023-09-30T13:43:11;6.80;;;2.00;;
77449;SDS011;66536;53.150;18.172;2023-09-30T13:45:38;8.60;;;2.20;;
77449;SDS011;66536;53.150;18.172;2023-09-30T13:48:04;8.40;;;2.00;;
77449;SDS011;66536;53.150;18.172;2023-09-30T13:50:32;8.20;;;2.20;;
77449;SDS011;66536;53.150;18.172;2023-09-30T13:52:58;6.90;;;1.80;;
77449;SDS011;66536;53.150;18.172;2023-09-30T13:55:26;9.30;;;2.30;;
77449;SDS011;66536;53.150;18.172;2023-09-30T13:57:52;9.40;;;2.00;;
77449;SDS011;66536;53.150;18.172;2023-09-30T14:00:19;6.00;;;2.20;;
77449;SDS011;66536;53.150;18.172;2023-09-30T14:03:07;4.10;;;1.90;;
77449;SDS011;66536;53.150;18.172;2023-09-30T14:05:33;6.30;;;2.00;;
77449;SDS011;66536;53.150;18.172;2023-09-30T14:08:00;7.70;;;2.00;;
77449;SDS011;66536;53.150;18.172;2023-09-30T14:10:33;5.80;;;1.90;;
77449;SDS011;66536;53.150;18.172;2023-09-30T14:12:59;4.50;;;1.90;;
77449;SDS011;66536;53.150;18.172;2023-09-30T14:15:26;10.80;;;2.20;;
77449;SDS011;66536;53.150;18.172;2023-09-30T14:17:54;27.50;;;3.00;;
77449;SDS011;66536;53.150;18.172;2023-09-30T14:20:40;6.40;;;1.60;;
77449;SDS011;66536;53.150;18.172;2023-09-30T14:23:06;9.10;;;1.80;;
77449;SDS011;66536;53.150;18.172;2023-09-30T14:25:32;10.30;;;2.20;;
77449;SDS011;66536;53.150;18.172;2023-09-30T14:28:00;8.50;;;2.10;;
77449;SDS011;66536;53.150;18.172;2023-09-30T14:30:26;10.50;;;2.20;;
77449;SDS011;66536;53.150;18.172;2023-09-30T14:32:52;7.60;;;1.80;;
77449;SDS011;66536;53.150;18.172;2023-09-30T14:35:20;7.30;;;1.90;;
77449;SDS011;66536;53.150;18.172;2023-09-30T14:37:47;6.60;;;1.60;;
77449;SDS011;66536;53.150;18.172;2023-09-30T14:40:13;7.80;;;1.80;;
77449;SDS011;66536;53.150;18.172;2023-09-30T14:42:40;8.30;;;2.40;;
77449;SDS011;66536;53.150;18.172;2023-09-30T14:45:07;8.50;;;2.10;;
77449;SDS011;66536;53.150;18.172;2023-09-30T14:47:35;9.30;;;2.40;;